createdAt,value
2023-01-12T00:02:54.593Z,76.16
2023-01-12T00:06:07.864Z,75.99
2023-01-12T00:09:11.012Z,75.73
2023-01-12T00:12:13.865Z,76.31
2023-01-12T00:15:16.831Z,76.62
2023-01-12T00:18:19.674Z,76.47
2023-01-12T00:21:23.753Z,76.96
2023-01-12T00:24:27.751Z,77.21
2023-01-12T00:27:30.375Z,76.51
2023-01-12T00:30:33.363Z,76.25
2023-01-12T00:33:35.975Z,75.15
2023-01-12T00:36:39.862Z,74.74
2023-01-12T00:39:53.276Z,73.99
2023-01-12T00:43:20.917Z,73.67
2023-01-12T00:46:30.929Z,72.45
2023-01-12T00:49:33.710Z,71.97
2023-01-12T00:52:37.704Z,71.21
2023-01-12T00:55:40.426Z,70.26
2023-01-12T00:58:42.933Z,69.13
2023-01-12T01:01:45.918Z,68.11
2023-01-12T01:04:48.573Z,69.00
2023-01-12T01:07:52.578Z,68.99
2023-01-12T01:11:02.448Z,68.93
2023-01-12T01:14:05.141Z,68.11
2023-01-12T01:17:08.119Z,67.81
2023-01-12T01:20:12.465Z,67.07
2023-01-12T01:23:16.415Z,67.35
2023-01-12T01:26:21.307Z,68.42
2023-01-12T01:29:23.913Z,68.98
2023-01-12T01:32:26.422Z,68.65
2023-01-12T01:35:29.193Z,68.72
2023-01-12T01:38:33.847Z,68.08
2023-01-12T01:41:36.576Z,68.33
2023-01-12T01:44:54.881Z,68.67
2023-01-12T01:47:59.692Z,67.45
2023-01-12T01:51:05.447Z,67.28
2023-01-12T01:54:09.789Z,66.50
2023-01-12T01:57:12.648Z,66.01
2023-01-12T02:03:43.018Z,65.73
2023-01-12T02:06:45.663Z,66.00
2023-01-12T02:09:49.588Z,65.52
2023-01-12T02:13:09.636Z,64.82
2023-01-12T02:16:23.219Z,64.99
2023-01-12T02:20:01.417Z,65.41
2023-01-12T02:23:24.842Z,65.75
2023-01-12T02:27:07.955Z,65.40
2023-01-12T02:30:48.234Z,65.88
2023-01-12T02:34:02.064Z,66.42
2023-01-12T02:37:12.837Z,66.44
2023-01-12T02:40:21.917Z,66.68
2023-01-12T02:43:25.980Z,65.73
2023-01-12T02:46:31.983Z,65.78
2023-01-12T02:49:40.435Z,65.53
2023-01-12T02:52:45.411Z,65.77
2023-01-12T02:55:48.337Z,65.00
2023-01-12T02:58:54.767Z,65.75
2023-01-12T03:02:00.270Z,65.73
2023-01-12T03:05:04.412Z,66.12
2023-01-12T03:08:07.145Z,65.45
2023-01-12T03:11:13.197Z,65.42
2023-01-12T03:14:16.417Z,65.31
2023-01-12T03:17:26.040Z,65.76
2023-01-12T03:20:32.843Z,66.54
2023-01-12T03:23:40.144Z,66.19
2023-01-12T03:26:45.137Z,65.69
2023-01-12T03:29:51.273Z,66.18
2023-01-12T03:32:54.166Z,67.18
2023-01-12T03:36:07.232Z,67.36
2023-01-12T03:39:15.262Z,67.58
2023-01-12T03:42:21.481Z,67.99
2023-01-12T03:45:28.284Z,68.54
2023-01-12T03:48:33.428Z,67.62
2023-01-12T03:51:40.556Z,68.38
2023-01-12T03:54:44.206Z,68.27
2023-01-12T03:57:47.602Z,67.70
2023-01-12T04:00:50.384Z,67.25
2023-01-12T04:03:53.221Z,67.10
2023-01-12T04:06:57.563Z,66.35
2023-01-12T04:10:00.259Z,66.40
2023-01-12T04:13:03.095Z,65.53
2023-01-12T04:16:06.606Z,65.92
2023-01-12T04:19:09.289Z,65.32
2023-01-12T04:22:34.112Z,64.86
2023-01-12T04:25:37.135Z,65.49
2023-01-12T04:28:39.744Z,65.00
2023-01-12T04:31:42.468Z,64.69
2023-01-12T04:34:46.265Z,64.71
2023-01-12T04:37:50.295Z,65.47
2023-01-12T04:40:54.799Z,64.90
2023-01-12T04:43:57.378Z,65.43
2023-01-12T04:46:59.896Z,65.35
2023-01-12T04:50:02.479Z,65.45
2023-01-12T04:53:07.882Z,65.80
2023-01-12T04:56:10.606Z,65.74
2023-01-12T04:59:13.378Z,64.72
2023-01-12T05:02:16.087Z,65.52
2023-01-12T05:05:18.792Z,64.78
2023-01-12T05:08:40.340Z,64.86
2023-01-12T05:11:43.050Z,64.20
2023-01-12T05:14:45.712Z,64.74
2023-01-12T05:17:48.278Z,65.03
2023-01-12T05:20:51.222Z,64.17
2023-01-12T05:23:55.387Z,63.83
2023-01-12T05:26:58.601Z,65.12
2023-01-12T05:30:01.371Z,62.29
2023-01-12T05:33:04.013Z,60.86
2023-01-12T05:36:08.278Z,61.48
2023-01-12T05:39:12.607Z,62.09
2023-01-12T05:42:32.756Z,61.86
2023-01-12T05:45:35.506Z,61.95
2023-01-12T05:48:38.476Z,62.13
2023-01-12T05:51:41.615Z,62.24
2023-01-12T05:54:45.859Z,62.26
2023-01-12T05:57:48.514Z,62.31
2023-01-12T06:00:51.318Z,62.69
2023-01-12T06:03:55.838Z,62.52
2023-01-12T06:06:58.845Z,63.15
2023-01-12T06:10:02.854Z,63.42
2023-01-12T06:13:22.972Z,63.57
2023-01-12T06:16:26.119Z,63.27
2023-01-12T06:19:28.907Z,63.40
2023-01-12T06:22:31.617Z,63.93
2023-01-12T06:25:35.632Z,63.80
2023-01-12T06:28:39.542Z,63.31
2023-01-12T06:31:43.870Z,63.29
2023-01-12T06:34:47.226Z,63.39
2023-01-12T06:37:50.347Z,63.62
2023-01-12T06:40:57.195Z,63.10
2023-01-12T06:44:00.709Z,63.78
2023-01-12T06:47:03.551Z,63.00
2023-01-12T06:50:06.927Z,63.07
2023-01-12T06:53:09.619Z,63.64
2023-01-12T06:56:13.625Z,62.89
2023-01-12T06:59:16.676Z,63.04
2023-01-12T07:02:19.385Z,62.70
2023-01-12T07:05:22.098Z,63.05
2023-01-12T07:08:25.159Z,63.10
2023-01-12T07:11:29.240Z,62.85
2023-01-12T07:14:31.941Z,63.15
2023-01-12T07:17:35.387Z,62.40
2023-01-12T07:20:38.170Z,62.43
2023-01-12T07:23:42.247Z,62.08
2023-01-12T07:26:49.255Z,61.46
2023-01-12T07:29:53.287Z,60.93
2023-01-12T07:32:56.092Z,61.35
2023-01-12T07:35:59.788Z,60.60
2023-01-12T07:39:02.345Z,60.34
2023-01-12T07:42:25.123Z,60.16
2023-01-12T07:45:28.601Z,60.00
2023-01-12T07:48:31.347Z,59.58
2023-01-12T07:51:34.220Z,59.01
2023-01-12T07:54:37.979Z,58.81
2023-01-12T07:57:42.360Z,58.61
2023-01-12T08:00:45.571Z,59.03
2023-01-12T08:03:48.243Z,58.25
2023-01-12T08:06:50.788Z,58.58
2023-01-12T08:09:53.596Z,58.26
2023-01-12T08:12:57.648Z,57.77
2023-01-12T08:16:04.728Z,57.61
2023-01-12T08:19:12.084Z,57.50
2023-01-12T08:22:21.096Z,57.38
2023-01-12T08:25:28.000Z,57.25
2023-01-12T08:28:34.141Z,57.56
2023-01-12T08:31:37.488Z,57.29
2023-01-12T08:34:42.358Z,57.25
2023-01-12T08:37:45.266Z,57.60
2023-01-12T08:41:05.510Z,58.02
2023-01-12T08:44:10.940Z,57.75
2023-01-12T08:47:18.932Z,57.89
2023-01-12T08:50:21.579Z,57.84
2023-01-12T08:53:24.436Z,58.05
2023-01-12T08:56:27.194Z,58.36
2023-01-12T08:59:31.558Z,57.75
2023-01-12T09:02:34.318Z,58.39
2023-01-12T09:05:37.145Z,57.88
2023-01-12T09:08:39.737Z,58.10
2023-01-12T09:11:43.419Z,57.58
2023-01-12T09:14:47.615Z,57.57
2023-01-12T09:17:53.132Z,57.67
2023-01-12T09:21:01.383Z,58.26
2023-01-12T09:24:05.490Z,58.73
2023-01-12T09:27:08.656Z,58.62
2023-01-12T09:30:13.582Z,58.22
2023-01-12T09:33:17.152Z,58.14
2023-01-12T09:36:23.159Z,58.50
2023-01-12T09:39:28.351Z,58.91
2023-01-12T09:43:00.156Z,58.78
2023-01-12T09:46:22.067Z,58.92
2023-01-12T09:49:27.832Z,58.29
2023-01-12T09:52:33.209Z,58.63
2023-01-12T09:55:41.772Z,58.66
2023-01-12T09:59:15.184Z,57.88
2023-01-12T10:02:20.671Z,58.01
2023-01-12T10:05:38.841Z,57.73
2023-01-12T10:08:44.647Z,57.15
2023-01-12T10:11:51.887Z,56.68
2023-01-12T10:15:23.599Z,56.42
2023-01-12T10:18:32.287Z,56.53
2023-01-12T10:21:36.053Z,55.98
2023-01-12T10:24:39.171Z,55.80
2023-01-12T10:27:44.175Z,56.01
2023-01-12T10:30:48.200Z,56.08
2023-01-12T10:34:08.984Z,55.48
2023-01-12T10:37:12.544Z,55.61
2023-01-12T10:40:25.310Z,54.04
2023-01-12T10:43:32.573Z,54.97
2023-01-12T10:46:35.994Z,54.03
2023-01-12T10:49:40.220Z,54.44
2023-01-12T10:52:43.262Z,54.57
2023-01-12T10:55:47.821Z,55.32
2023-01-12T10:58:55.167Z,54.16
2023-01-12T11:02:16.011Z,54.28
2023-01-12T11:05:36.705Z,54.14
2023-01-12T11:08:40.062Z,54.34
2023-01-12T11:11:42.717Z,54.72
2023-01-12T11:14:58.161Z,53.85
2023-01-12T11:18:07.663Z,53.84
2023-01-12T11:21:12.819Z,53.66
2023-01-12T11:24:21.499Z,54.06
2023-01-12T11:27:29.763Z,54.70
2023-01-12T11:30:36.809Z,55.04
2023-01-12T11:33:41.593Z,54.87
2023-01-12T11:36:48.078Z,53.73
2023-01-12T11:39:53.231Z,54.40
2023-01-12T11:43:15.376Z,54.85
2023-01-12T11:46:26.760Z,54.76
2023-01-12T11:49:34.497Z,54.47
2023-01-12T11:52:38.582Z,53.72
2023-01-12T11:55:56.495Z,54.48
2023-01-12T11:59:03.090Z,55.33
2023-01-12T12:02:17.657Z,54.66
2023-01-12T12:05:28.858Z,54.45
2023-01-12T12:08:43.188Z,56.04
2023-01-12T12:11:52.863Z,56.37
2023-01-12T12:15:08.475Z,56.28
2023-01-12T12:18:21.172Z,56.73
2023-01-12T12:21:37.401Z,55.51
2023-01-12T12:25:16.614Z,55.46
2023-01-12T12:28:38.710Z,54.49
2023-01-12T12:31:50.091Z,54.51
2023-01-12T12:35:05.288Z,56.04
2023-01-12T12:38:19.603Z,55.40
2023-01-12T12:42:00.058Z,55.62
2023-01-12T12:45:19.035Z,55.63
2023-01-12T12:48:27.532Z,54.70
2023-01-12T12:51:31.600Z,54.90
2023-01-12T12:54:35.075Z,54.22
2023-01-12T12:58:04.299Z,55.72
2023-01-12T13:01:43.765Z,54.48
2023-01-12T13:05:06.392Z,55.59
2023-01-12T13:08:19.741Z,54.44
2023-01-12T13:11:50.514Z,55.67
2023-01-12T13:15:21.331Z,55.99
2023-01-12T13:18:43.616Z,56.02
2023-01-12T13:21:58.404Z,56.25
2023-01-12T13:25:02.405Z,56.46
2023-01-12T13:28:18.077Z,56.10
2023-01-12T13:31:34.691Z,56.48
2023-01-12T13:34:46.266Z,56.52
2023-01-12T13:37:53.437Z,56.83
2023-01-12T13:41:03.053Z,55.97
2023-01-12T13:44:07.680Z,56.46
2023-01-12T13:47:17.121Z,57.01
2023-01-12T13:50:22.072Z,57.02
2023-01-12T13:53:28.483Z,57.07
2023-01-12T13:56:32.909Z,57.64
2023-01-12T13:59:35.626Z,58.42
2023-01-12T14:02:40.000Z,57.04
2023-01-12T14:05:52.558Z,57.11
2023-01-12T14:09:03.404Z,57.54
2023-01-12T14:12:28.504Z,58.25
2023-01-12T14:15:54.986Z,58.27
2023-01-12T14:18:59.350Z,57.96
2023-01-12T14:22:05.700Z,58.98
2023-01-12T14:25:15.304Z,58.73
2023-01-12T14:28:19.231Z,58.64
2023-01-12T14:31:28.604Z,59.16
2023-01-12T14:34:34.895Z,59.58
2023-01-12T14:37:39.119Z,59.02
2023-01-12T14:40:42.007Z,58.62
2023-01-12T14:44:04.300Z,59.78
2023-01-12T14:47:07.995Z,58.70
2023-01-12T14:50:19.695Z,58.83
2023-01-12T14:53:34.536Z,59.55
2023-01-12T14:56:42.916Z,59.37
2023-01-12T14:59:47.202Z,59.57
2023-01-12T15:06:19.750Z,60.15
2023-01-12T15:09:28.319Z,59.79
2023-01-12T15:12:47.318Z,59.26
2023-01-12T15:16:09.350Z,60.18
2023-01-12T15:19:29.603Z,59.77
2023-01-12T15:22:51.382Z,60.46
2023-01-12T15:25:54.056Z,60.35
2023-01-12T15:28:56.882Z,60.30
2023-01-12T15:32:00.131Z,61.19
2023-01-12T15:38:32.102Z,60.30
2023-01-12T15:41:52.164Z,60.60
2023-01-12T15:44:55.175Z,60.92
2023-01-12T15:47:57.935Z,60.88
2023-01-12T15:51:00.668Z,61.43
2023-01-12T15:54:05.094Z,61.14
2023-01-12T15:57:09.283Z,61.66
2023-01-12T16:00:16.592Z,61.80
2023-01-12T16:03:49.034Z,61.79
2023-01-12T16:06:42.125Z,61.99
2023-01-12T16:09:48.025Z,62.20
2023-01-12T16:12:50.559Z,62.28
2023-01-12T16:15:53.442Z,61.92
2023-01-12T16:18:58.512Z,62.09
2023-01-12T16:22:01.212Z,61.96
2023-01-12T16:25:06.131Z,62.01
2023-01-12T16:28:09.415Z,62.26
2023-01-12T16:31:13.957Z,62.18
2023-01-12T16:34:18.292Z,62.12
2023-01-12T16:37:23.149Z,61.64
2023-01-12T16:40:27.285Z,62.00
2023-01-12T16:43:30.805Z,61.87
2023-01-12T16:46:33.660Z,61.70
2023-01-12T16:49:36.396Z,61.66
2023-01-12T16:52:39.078Z,61.34
2023-01-12T16:55:43.359Z,61.79
2023-01-12T16:58:48.273Z,61.52
2023-01-12T17:01:51.982Z,61.63
2023-01-12T17:04:54.864Z,61.36
2023-01-12T17:07:57.676Z,61.48
2023-01-12T17:11:06.909Z,61.26
2023-01-12T17:14:24.246Z,61.23
2023-01-12T17:17:27.392Z,61.37
2023-01-12T17:20:30.256Z,61.13
2023-01-12T17:23:34.649Z,61.00
2023-01-12T17:26:40.423Z,60.70
2023-01-12T17:29:43.521Z,60.87
2023-01-12T17:32:46.230Z,61.07
2023-01-12T17:35:49.123Z,60.63
2023-01-12T17:38:51.795Z,60.84
2023-01-12T17:42:13.288Z,60.22
2023-01-12T17:45:15.961Z,59.98
2023-01-12T17:48:19.664Z,60.64
2023-01-12T17:51:22.208Z,59.80
2023-01-12T17:54:24.967Z,60.17
2023-01-12T17:57:29.916Z,59.78
2023-01-12T18:00:33.308Z,59.76
2023-01-12T18:03:36.236Z,59.33
2023-01-12T18:06:38.837Z,59.53
2023-01-12T18:09:42.112Z,59.17
2023-01-12T18:12:46.697Z,59.59
2023-01-12T18:15:49.569Z,58.90
2023-01-12T18:18:53.189Z,59.18
2023-01-12T18:21:55.884Z,58.72
2023-01-12T18:24:58.735Z,58.79
2023-01-12T18:28:02.934Z,58.23
2023-01-12T18:31:07.932Z,58.48
2023-01-12T18:34:11.699Z,58.54
2023-01-12T18:37:14.955Z,57.79
2023-01-12T18:40:17.828Z,58.25
2023-01-12T18:43:21.098Z,57.99
2023-01-12T18:46:45.020Z,58.49
2023-01-12T18:49:48.518Z,58.56
2023-01-12T18:53:09.219Z,57.89
2023-01-12T18:56:11.804Z,58.07
2023-01-12T18:59:16.395Z,58.16
2023-01-12T19:02:20.053Z,58.25
2023-01-12T19:05:27.174Z,57.65
2023-01-12T19:08:47.602Z,57.90
2023-01-12T19:11:50.217Z,57.35
2023-01-12T19:15:20.149Z,57.64
2023-01-12T19:18:23.201Z,56.89
2023-01-12T19:21:43.172Z,56.43
2023-01-12T19:25:03.296Z,56.64
2023-01-12T19:28:26.211Z,57.05
2023-01-12T19:31:30.473Z,56.70
2023-01-12T19:34:33.117Z,56.71
2023-01-12T19:37:36.029Z,57.25
2023-01-12T19:40:45.381Z,56.65
2023-01-12T19:43:48.502Z,56.96
2023-01-12T19:46:53.132Z,56.55
2023-01-12T19:49:55.927Z,56.29
2023-01-12T19:52:58.541Z,56.45
2023-01-12T19:56:01.720Z,56.25
2023-01-12T19:59:04.500Z,56.38
2023-01-12T20:02:10.811Z,56.25
2023-01-12T20:05:21.935Z,56.03
2023-01-12T20:08:26.109Z,56.46
2023-01-12T20:11:29.997Z,55.94
2023-01-12T20:14:33.130Z,55.91
2023-01-12T20:17:37.379Z,55.97
2023-01-12T20:20:42.143Z,55.71
2023-01-12T20:23:44.816Z,56.69
2023-01-12T20:26:47.695Z,55.86
2023-01-12T20:29:50.930Z,55.75
2023-01-12T20:32:55.017Z,56.48
2023-01-12T20:35:58.297Z,56.42
2023-01-12T20:39:01.517Z,57.04
2023-01-12T20:42:04.504Z,56.92
2023-01-12T20:45:09.151Z,56.91
2023-01-12T20:48:14.854Z,57.17
2023-01-12T20:51:18.098Z,56.91
2023-01-12T20:54:20.950Z,56.68
2023-01-12T20:57:24.068Z,57.21
2023-01-12T21:00:28.900Z,57.05
2023-01-12T21:03:33.218Z,57.31
2023-01-12T21:06:36.125Z,56.63
2023-01-12T21:09:39.058Z,57.54
2023-01-12T21:12:42.271Z,56.92
2023-01-12T21:15:45.105Z,57.19
2023-01-12T21:18:49.350Z,57.08
2023-01-12T21:21:52.261Z,57.60
2023-01-12T21:24:54.994Z,57.56
2023-01-12T21:27:57.941Z,57.70
2023-01-12T21:31:01.995Z,57.49
2023-01-12T21:34:06.087Z,57.93
2023-01-12T21:37:08.794Z,57.46
2023-01-12T21:40:14.339Z,57.16
2023-01-12T21:43:18.328Z,57.45
2023-01-12T21:46:22.339Z,57.81
2023-01-12T21:49:26.551Z,58.29
2023-01-12T21:52:32.982Z,57.66
2023-01-12T21:55:36.087Z,58.23
2023-01-12T21:58:39.297Z,57.80
2023-01-12T22:01:42.228Z,57.61
2023-01-12T22:04:46.199Z,57.76
2023-01-12T22:07:49.322Z,58.09
2023-01-12T22:10:51.985Z,57.88
2023-01-12T22:13:54.765Z,57.82
2023-01-12T22:16:57.470Z,57.58
2023-01-12T22:20:01.787Z,57.91
2023-01-12T22:23:04.478Z,57.44
2023-01-12T22:26:10.037Z,57.93
2023-01-12T22:29:13.059Z,57.32
2023-01-12T22:32:15.786Z,57.24
2023-01-12T22:35:20.092Z,56.88
2023-01-12T22:38:22.981Z,57.44
2023-01-12T22:41:26.813Z,57.06
2023-01-12T22:44:29.757Z,57.34
2023-01-12T22:47:47.052Z,57.05
2023-01-12T22:50:54.322Z,56.41
2023-01-12T22:53:57.660Z,56.52
2023-01-12T22:57:01.593Z,56.94
2023-01-12T23:00:05.612Z,56.77
2023-01-12T23:03:09.894Z,56.90
2023-01-12T23:06:15.936Z,56.20
2023-01-12T23:09:19.073Z,56.37
2023-01-12T23:12:21.768Z,56.28
2023-01-12T23:15:24.433Z,56.40
2023-01-12T23:18:29.440Z,57.10
2023-01-12T23:21:33.541Z,56.92
2023-01-12T23:24:38.209Z,56.77
2023-01-12T23:27:40.874Z,56.71
2023-01-12T23:30:44.080Z,56.92
2023-01-12T23:33:47.050Z,57.34
2023-01-12T23:36:51.114Z,58.39
2023-01-12T23:39:54.107Z,58.04
2023-01-12T23:42:57.113Z,57.34
2023-01-12T23:46:00.967Z,57.39
2023-01-12T23:49:04.427Z,57.33
2023-01-12T23:52:08.588Z,57.38
2023-01-12T23:55:11.385Z,56.80
2023-01-12T23:58:14.331Z,56.71
